Time;durP1;ratioP1;P1;durP2;ratioP2;P2;SDS_P1;SDS_P2;PMS_P1;PMS_P2;Temp;Humidity;BMP_temperature;BMP_pressure;BME280_temperature;BME280_humidity;BME280_pressure;Samples;Min_cycle;Max_cycle;Signal;HPM_P1;HPM_P2
2021/11/28 00:01:04;;;;;;;19.50;13.88;;;13.60;91.80;;;;;;5097467;28;20449;-58
2021/11/28 00:03:30;;;;;;;22.02;15.27;;;13.60;91.70;;;;;;5097206;28;20355;-58
2021/11/28 00:05:59;;;;;;;20.23;13.95;;;13.70;91.50;;;;;;5098228;28;20055;-59
2021/11/28 00:11:29;;;;;;;23.60;14.63;;;13.70;91.10;;;;;;5099009;28;20514;-58
2021/11/28 00:16:27;;;;;;;30.85;20.23;;;13.80;91.30;;;;;;5099776;28;20043;-58
2021/11/28 00:18:53;;;;;;;35.38;21.77;;;13.90;91.80;;;;;;5100424;28;20039;-58
2021/11/28 00:21:19;;;;;;;34.58;22.50;;;14.00;91.90;;;;;;5084045;28;20036;-58
2021/11/28 00:23:44;;;;;;;32.47;22.27;;;14.10;91.90;;;;;;5097817;28;20031;-58
2021/11/28 00:26:12;;;;;;;36.25;22.15;;;14.20;91.90;;;;;;5098269;28;20043;-58
2021/11/28 00:28:38;;;;;;;35.03;23.00;;;14.30;91.70;;;;;;5098712;28;20085;-58
2021/11/28 00:31:05;;;;;;;35.55;23.02;;;14.30;91.50;;;;;;5099441;28;20032;-59
2021/11/28 00:33:31;;;;;;;35.85;22.05;;;14.40;91.50;;;;;;5097911;28;20118;-58
2021/11/28 00:35:57;;;;;;;35.70;24.02;;;14.40;91.40;;;;;;5098647;28;20081;-58
2021/11/28 00:38:23;;;;;;;34.35;23.33;;;14.40;91.20;;;;;;5104003;28;20064;-59
2021/11/28 00:40:48;;;;;;;34.97;23.20;;;14.50;91.10;;;;;;5097803;28;20119;-58
2021/11/28 00:43:16;;;;;;;35.22;24.20;;;14.50;91.00;;;;;;5098513;28;21021;-58
2021/11/28 00:45:42;;;;;;;34.33;22.63;;;14.50;90.90;;;;;;5098569;28;20650;-58
2021/11/28 00:48:07;;;;;;;33.60;20.88;;;14.60;90.90;;;;;;5097476;28;20028;-57
2021/11/28 00:53:08;;;;;;;35.25;23.05;;;14.60;90.40;;;;;;5097380;28;20454;-57
2021/11/28 00:55:34;;;;;;;38.85;23.50;;;14.50;90.40;;;;;;5103480;28;20039;-59
2021/11/28 00:58:00;;;;;;;35.08;22.58;;;14.60;90.40;;;;;;5098641;28;20032;-58
2021/11/28 01:00:26;;;;;;;37.30;23.58;;;14.60;90.30;;;;;;5097793;28;20044;-58
2021/11/28 01:02:52;;;;;;;34.08;22.83;;;14.60;90.30;;;;;;5096308;28;20035;-58
2021/11/28 01:05:18;;;;;;;35.15;22.98;;;14.60;90.20;;;;;;5102964;28;20047;-59
2021/11/28 01:07:44;;;;;;;34.67;23.35;;;14.60;90.10;;;;;;5096179;28;20077;-58
2021/11/28 01:10:12;;;;;;;34.33;21.75;;;14.70;90.00;;;;;;5098038;28;20526;-58
2021/11/28 01:12:38;;;;;;;35.28;23.08;;;14.70;89.60;;;;;;5098140;28;20035;-59
2021/11/28 01:15:06;;;;;;;33.22;20.92;;;14.70;89.50;;;;;;5097424;28;20120;-58
2021/11/28 01:17:34;;;;;;;31.77;21.40;;;14.70;89.30;;;;;;5097962;28;20044;-58
2021/11/28 01:20:00;;;;;;;30.08;21.08;;;14.70;89.10;;;;;;5099875;28;21240;-59
2021/11/28 01:22:26;;;;;;;31.80;21.50;;;14.70;89.00;;;;;;5096160;28;20395;-58
2021/11/28 01:24:51;;;;;;;30.85;21.25;;;14.70;88.70;;;;;;5102178;28;20039;-58
2021/11/28 01:27:18;;;;;;;31.88;21.15;;;14.80;88.70;;;;;;5097447;28;20036;-58
2021/11/28 01:29:44;;;;;;;30.35;20.15;;;14.80;88.50;;;;;;5098478;28;20043;-58
2021/11/28 01:32:11;;;;;;;33.88;22.88;;;14.80;88.40;;;;;;5097409;28;20044;-58
2021/11/28 01:34:38;;;;;;;29.90;21.13;;;14.80;88.30;;;;;;5096128;28;20047;-58
2021/11/28 01:37:05;;;;;;;30.83;20.70;;;14.80;88.00;;;;;;5098731;28;20515;-58
2021/11/28 01:39:31;;;;;;;30.23;20.55;;;14.80;87.70;;;;;;5102162;28;20761;-58
2021/11/28 01:41:57;;;;;;;28.58;19.35;;;14.80;87.50;;;;;;5096170;28;20773;-57
2021/11/28 01:44:23;;;;;;;27.95;18.73;;;14.90;87.20;;;;;;5097004;28;20043;-57
2021/11/28 01:46:49;;;;;;;27.48;19.63;;;14.90;87.10;;;;;;5095941;28;20043;-58
2021/11/28 01:49:16;;;;;;;28.67;19.45;;;14.90;87.00;;;;;;5101905;28;20040;-58
2021/11/28 01:51:42;;;;;;;27.58;18.88;;;14.90;86.50;;;;;;5097020;28;20063;-58
2021/11/28 01:54:12;;;;;;;26.70;18.50;;;15.00;86.20;;;;;;5096491;28;20055;-58
2021/11/28 01:56:42;;;;;;;25.67;17.95;;;15.00;86.00;;;;;;5097233;28;20561;-58
2021/11/28 01:59:10;;;;;;;27.13;16.88;;;15.00;85.80;;;;;;5097521;28;20095;-58
2021/11/28 02:01:36;;;;;;;25.08;16.77;;;14.90;85.60;;;;;;5098531;28;20040;-58
2021/11/28 02:04:02;;;;;;;26.50;17.23;;;14.90;85.70;;;;;;5095547;28;20796;-59
2021/11/28 02:06:28;;;;;;;24.75;16.55;;;14.90;85.60;;;;;;5094958;28;20134;-58
2021/11/28 02:08:55;;;;;;;23.10;15.43;;;14.90;85.50;;;;;;5101824;28;20047;-58
2021/11/28 02:11:21;;;;;;;27.00;16.67;;;15.00;85.30;;;;;;5097623;28;20041;-58
2021/11/28 02:13:47;;;;;;;25.85;16.85;;;15.00;85.00;;;;;;5097105;28;20050;-58
2021/11/28 02:16:13;;;;;;;21.73;15.27;;;15.00;84.80;;;;;;5077356;28;20419;-58
2021/11/28 02:18:40;;;;;;;23.85;16.40;;;15.10;84.90;;;;;;5101271;28;20059;-58
2021/11/28 02:21:08;;;;;;;20.63;14.65;;;15.00;84.90;;;;;;5098070;28;20953;-58
2021/11/28 02:23:34;;;;;;;21.70;14.52;;;15.00;84.90;;;;;;5094904;28;20036;-58
2021/11/28 02:26:03;;;;;;;20.08;14.60;;;15.00;84.80;;;;;;5095982;28;20076;-58
2021/11/28 02:28:31;;;;;;;21.85;15.30;;;15.00;84.50;;;;;;5097470;28;20032;-58
2021/11/28 02:30:57;;;;;;;21.30;13.88;;;14.90;84.70;;;;;;5095019;28;20080;-58
2021/11/28 02:33:22;;;;;;;19.80;13.05;;;14.90;84.80;;;;;;5096858;28;20075;-58
2021/11/28 02:35:48;;;;;;;21.00;13.70;;;14.90;84.70;;;;;;5095315;28;20040;-58
2021/11/28 02:38:14;;;;;;;17.10;11.93;;;14.90;84.40;;;;;;5097476;28;20035;-58
2021/11/28 02:40:42;;;;;;;16.98;12.35;;;14.90;84.20;;;;;;5097014;28;20040;-58
2021/11/28 02:43:08;;;;;;;17.98;12.25;;;15.00;84.00;;;;;;5095646;28;20127;-58
2021/11/28 02:45:34;;;;;;;18.55;11.88;;;15.00;84.30;;;;;;5095863;28;20084;-58
2021/11/28 02:48:04;;;;;;;15.85;11.60;;;15.00;83.60;;;;;;5096177;28;20046;-59
2021/11/28 02:50:30;;;;;;;14.65;10.82;;;15.00;83.30;;;;;;5095515;28;20028;-58
2021/11/28 02:52:58;;;;;;;16.17;10.93;;;15.00;82.20;;;;;;5101184;28;20081;-58
2021/11/28 02:55:28;;;;;;;14.70;11.15;;;14.70;81.80;;;;;;5096005;28;20040;-58
2021/11/28 02:57:56;;;;;;;15.65;10.98;;;14.60;79.90;;;;;;5095709;28;20039;-59
2021/11/28 03:00:24;;;;;;;14.52;9.95;;;14.50;82.10;;;;;;5096347;28;21052;-58
2021/11/28 03:02:50;;;;;;;14.80;10.10;;;14.50;83.30;;;;;;5097825;28;20042;-58
2021/11/28 03:05:16;;;;;;;15.68;9.98;;;14.60;83.50;;;;;;5092898;28;20039;-58
2021/11/28 03:07:42;;;;;;;14.05;9.25;;;14.70;83.40;;;;;;5095322;28;20543;-58
2021/11/28 03:10:38;;;;;;;13.85;9.25;;;14.70;83.10;;;;;;5095468;28;20257;-63
2021/11/28 03:13:09;;;;;;;10.45;8.80;;;14.80;81.80;;;;;;5095005;28;20478;-64
2021/11/28 03:15:36;;;;;;;11.80;8.95;;;14.30;78.30;;;;;;5097179;28;20412;-64
2021/11/28 03:18:03;;;;;;;12.00;10.43;;;13.40;76.20;;;;;;5095111;28;20039;-64
2021/11/28 03:20:30;;;;;;;12.95;9.23;;;12.60;76.40;;;;;;5095273;28;20046;-64
2021/11/28 03:22:57;;;;;;;10.98;8.93;;;11.80;77.30;;;;;;5098134;28;20471;-63
2021/11/28 03:25:23;;;;;;;14.77;10.85;;;11.20;78.30;;;;;;5093437;28;20479;-64
2021/11/28 03:27:50;;;;;;;10.18;9.13;;;10.80;79.40;;;;;;5094706;28;20089;-63
2021/11/28 03:30:17;;;;;;;12.40;9.77;;;10.10;80.50;;;;;;5094920;28;20032;-63
2021/11/28 03:32:43;;;;;;;12.13;10.35;;;9.80;82.40;;;;;;5077203;28;20042;-63
2021/11/28 03:35:10;;;;;;;12.65;10.55;;;9.50;83.70;;;;;;5096113;28;20046;-64
2021/11/28 03:37:36;;;;;;;15.20;10.02;;;9.20;84.30;;;;;;5093547;28;20051;-63
2021/11/28 03:40:04;;;;;;;12.80;9.82;;;8.80;85.10;;;;;;5096647;28;20471;-63
2021/11/28 03:42:30;;;;;;;12.10;9.63;;;8.60;86.80;;;;;;5096863;28;20406;-63
2021/11/28 03:44:55;;;;;;;15.70;10.80;;;8.50;88.20;;;;;;5094514;28;20036;-63
2021/11/28 03:47:21;;;;;;;12.35;9.52;;;8.40;87.80;;;;;;5093780;28;20040;-63
2021/11/28 03:49:47;;;;;;;13.60;11.02;;;8.30;88.70;;;;;;5093810;28;20426;-63
2021/11/28 03:52:13;;;;;;;15.25;11.90;;;8.20;89.30;;;;;;5083945;28;20130;-63
2021/11/28 03:54:39;;;;;;;14.52;11.50;;;8.20;89.00;;;;;;5093027;28;20162;-64
2021/11/28 03:57:06;;;;;;;15.98;11.55;;;8.10;88.50;;;;;;5094913;28;20086;-63
2021/11/28 03:59:32;;;;;;;15.63;11.50;;;8.00;88.80;;;;;;5093516;28;20437;-63
2021/11/28 04:01:58;;;;;;;16.02;11.73;;;7.90;88.70;;;;;;5094351;28;20036;-63
2021/11/28 04:04:25;;;;;;;13.93;11.05;;;7.80;88.90;;;;;;5097550;28;20043;-63
2021/11/28 04:06:51;;;;;;;13.23;10.48;;;7.70;88.90;;;;;;5096385;28;20048;-63
2021/11/28 04:09:16;;;;;;;13.73;10.48;;;7.60;88.80;;;;;;5097413;28;20848;-63
2021/11/28 04:11:42;;;;;;;13.57;9.57;;;7.40;89.10;;;;;;5097704;28;20043;-63
2021/11/28 04:14:08;;;;;;;17.60;11.35;;;7.40;89.40;;;;;;5098729;28;20181;-63
2021/11/28 04:16:34;;;;;;;15.20;10.88;;;7.30;90.00;;;;;;5104105;27;20525;-63
2021/11/28 04:19:00;;;;;;;15.05;11.15;;;7.20;90.10;;;;;;5096709;28;20040;-63
2021/11/28 04:21:27;;;;;;;14.00;10.80;;;7.20;90.40;;;;;;5098366;28;20075;-63
2021/11/28 04:23:53;;;;;;;14.65;10.57;;;7.20;90.70;;;;;;5099023;28;20044;-63
2021/11/28 04:26:20;;;;;;;11.45;9.23;;;7.30;90.90;;;;;;5099048;28;20096;-63
2021/11/28 04:28:45;;;;;;;13.60;11.15;;;7.30;90.80;;;;;;5104094;28;20071;-63
2021/11/28 04:31:11;;;;;;;13.00;10.55;;;7.20;90.90;;;;;;5098561;28;20077;-63
2021/11/28 04:33:37;;;;;;;15.38;10.15;;;7.10;90.80;;;;;;5103908;28;20047;-63
2021/11/28 04:36:04;;;;;;;16.27;11.00;;;7.00;90.60;;;;;;5099051;28;20334;-63
2021/11/28 04:38:30;;;;;;;15.13;10.07;;;7.00;91.00;;;;;;5091164;28;20043;-63
2021/11/28 04:40:55;;;;;;;15.98;10.68;;;7.00;91.30;;;;;;5097076;28;20080;-63
2021/11/28 04:43:21;;;;;;;14.88;10.90;;;7.00;91.50;;;;;;5104010;28;20032;-64
2021/11/28 04:45:47;;;;;;;14.13;10.15;;;6.90;91.70;;;;;;5098643;28;20480;-63
2021/11/28 04:48:12;;;;;;;13.18;10.50;;;6.90;92.10;;;;;;5095963;28;20121;-63
2021/11/28 04:50:39;;;;;;;13.90;10.43;;;6.90;92.00;;;;;;5096262;28;20040;-62
2021/11/28 04:53:04;;;;;;;13.43;10.13;;;6.80;91.40;;;;;;5097003;28;20424;-62
2021/11/28 04:55:30;;;;;;;15.45;10.27;;;6.70;91.50;;;;;;5099263;28;20047;-62
2021/11/28 04:57:56;;;;;;;14.98;10.30;;;6.70;91.80;;;;;;5079034;28;20040;-62
2021/11/28 05:00:24;;;;;;;13.70;10.57;;;6.70;92.00;;;;;;5095565;28;20450;-63
2021/11/28 05:02:50;;;;;;;11.93;9.57;;;6.70;92.30;;;;;;5086162;28;20036;-63
2021/11/28 05:05:16;;;;;;;12.75;9.95;;;6.70;92.00;;;;;;5098319;28;20043;-63
2021/11/28 05:07:42;;;;;;;12.85;9.98;;;6.70;92.10;;;;;;5096608;28;20137;-63
2021/11/28 05:10:09;;;;;;;14.63;10.38;;;6.70;92.10;;;;;;5096752;28;20117;-63
2021/11/28 05:12:35;;;;;;;14.82;10.40;;;6.70;92.30;;;;;;5096862;28;20040;-63
2021/11/28 05:15:01;;;;;;;13.68;10.60;;;6.70;92.50;;;;;;5102748;28;20058;-63
2021/11/28 05:17:27;;;;;;;14.00;10.65;;;6.70;92.70;;;;;;5098178;28;20035;-63
2021/11/28 05:19:53;;;;;;;14.70;10.10;;;6.80;92.70;;;;;;5090605;28;20048;-63
2021/11/28 05:22:19;;;;;;;15.35;9.93;;;6.80;92.60;;;;;;5096691;28;20063;-63
2021/11/28 05:24:47;;;;;;;13.82;10.40;;;6.80;92.60;;;;;;5097274;28;20452;-63
2021/11/28 05:27:14;;;;;;;15.27;10.90;;;6.80;92.90;;;;;;5097335;28;20107;-63
2021/11/28 05:29:40;;;;;;;13.98;11.75;;;6.80;92.90;;;;;;5095501;28;20044;-63
2021/11/28 05:32:06;;;;;;;15.82;10.75;;;6.90;92.80;;;;;;5085932;28;20053;-63
2021/11/28 05:34:32;;;;;;;15.82;12.05;;;6.80;92.60;;;;;;5095676;28;20047;-63
2021/11/28 05:36:58;;;;;;;13.55;11.10;;;6.80;92.80;;;;;;5097862;28;20464;-63
2021/11/28 05:39:23;;;;;;;14.02;10.65;;;6.80;92.70;;;;;;5097901;28;20028;-63
2021/11/28 05:41:49;;;;;;;13.20;10.25;;;6.80;92.90;;;;;;5095071;28;20520;-63
2021/11/28 05:44:15;;;;;;;14.18;10.27;;;6.80;92.90;;;;;;5097273;28;20047;-63
2021/11/28 05:46:41;;;;;;;13.00;9.20;;;6.70;92.70;;;;;;5098936;28;20128;-64
2021/11/28 05:49:06;;;;;;;13.50;9.25;;;6.60;92.40;;;;;;5095451;28;20039;-63
2021/11/28 05:51:32;;;;;;;12.27;10.27;;;6.70;92.90;;;;;;5096876;28;20040;-63
2021/11/28 05:53:58;;;;;;;12.20;10.05;;;6.70;93.00;;;;;;5097316;28;20547;-63
2021/11/28 05:56:24;;;;;;;13.70;11.70;;;6.60;92.60;;;;;;5094975;28;20043;-62
2021/11/28 05:58:50;;;;;;;12.15;9.13;;;6.60;92.50;;;;;;5096495;28;20040;-63
2021/11/28 06:01:15;;;;;;;13.77;10.23;;;6.60;92.60;;;;;;5094147;28;20066;-63
2021/11/28 06:03:41;;;;;;;11.52;9.98;;;6.60;92.50;;;;;;5085053;28;20131;-63
2021/11/28 06:06:07;;;;;;;12.68;9.73;;;6.60;92.60;;;;;;5096267;28;20143;-62
2021/11/28 06:08:33;;;;;;;13.50;8.20;;;6.60;92.30;;;;;;5096630;28;20056;-63
2021/11/28 06:10:59;;;;;;;12.63;9.35;;;6.50;92.10;;;;;;5096687;28;20039;-62
2021/11/28 06:13:24;;;;;;;12.95;9.00;;;6.50;92.80;;;;;;5095283;28;20059;-62
2021/11/28 06:15:50;;;;;;;12.65;9.65;;;6.60;93.10;;;;;;5094196;28;20110;-62
2021/11/28 06:18:16;;;;;;;11.93;9.68;;;6.50;92.80;;;;;;5095613;28;20097;-63
2021/11/28 06:20:41;;;;;;;10.48;8.65;;;6.50;92.80;;;;;;5095578;28;21009;-63
2021/11/28 06:23:07;;;;;;;11.55;8.32;;;6.50;92.80;;;;;;5077345;28;20146;-61
2021/11/28 06:25:33;;;;;;;11.07;8.88;;;6.50;93.10;;;;;;5094442;28;20043;-63
2021/11/28 06:27:59;;;;;;;12.38;8.75;;;6.50;93.10;;;;;;5097960;28;20055;-63
2021/11/28 06:30:24;;;;;;;11.43;8.93;;;6.40;92.70;;;;;;5095399;28;20131;-62
2021/11/28 06:32:50;;;;;;;13.43;8.95;;;6.40;92.60;;;;;;5077393;28;20055;-63
2021/11/28 06:35:16;;;;;;;10.10;8.88;;;6.40;92.60;;;;;;5096559;28;20032;-63
2021/11/28 06:37:42;;;;;;;11.68;8.40;;;6.40;92.60;;;;;;5084206;28;20387;-63
2021/11/28 06:40:08;;;;;;;9.48;7.70;;;6.40;92.50;;;;;;5095676;28;20039;-63
2021/11/28 06:42:34;;;;;;;9.38;7.80;;;6.40;92.60;;;;;;5100874;28;20032;-63
2021/11/28 06:45:00;;;;;;;11.38;8.88;;;6.40;92.90;;;;;;5095492;28;21011;-63
2021/11/28 06:47:26;;;;;;;10.95;8.95;;;6.40;92.80;;;;;;5096835;28;20122;-63
2021/11/28 06:49:51;;;;;;;11.05;7.95;;;6.30;92.60;;;;;;5095457;28;20043;-63
2021/11/28 06:52:17;;;;;;;13.07;8.95;;;6.30;92.60;;;;;;5095560;28;20495;-63
2021/11/28 06:54:43;;;;;;;10.30;7.93;;;6.30;92.90;;;;;;5101336;28;20052;-63
2021/11/28 06:57:08;;;;;;;12.45;8.95;;;6.20;92.80;;;;;;5094516;28;20039;-62
2021/11/28 06:59:36;;;;;;;10.95;8.68;;;6.20;93.10;;;;;;5101037;28;20063;-62
2021/11/28 07:02:03;;;;;;;12.38;9.10;;;6.20;93.00;;;;;;5100546;28;20047;-62
2021/11/28 07:04:28;;;;;;;11.80;7.75;;;6.10;92.80;;;;;;5084141;28;20150;-64
2021/11/28 07:06:54;;;;;;;10.27;8.27;;;6.10;92.80;;;;;;5093500;28;20131;-63
2021/11/28 07:09:20;;;;;;;12.07;9.05;;;6.00;93.10;;;;;;5096251;28;20048;-63
2021/11/28 07:11:45;;;;;;;12.45;8.98;;;6.00;93.10;;;;;;5094724;28;20438;-64
2021/11/28 07:14:11;;;;;;;13.38;9.25;;;6.00;93.00;;;;;;5093167;28;20168;-64
2021/11/28 07:16:37;;;;;;;10.93;9.00;;;6.00;92.90;;;;;;5077524;28;20028;-65
2021/11/28 07:19:03;;;;;;;12.27;10.18;;;6.00;92.90;;;;;;5082964;28;20035;-63
2021/11/28 07:21:28;;;;;;;11.10;9.48;;;6.00;93.00;;;;;;5100789;28;20040;-62
2021/11/28 07:23:54;;;;;;;12.50;9.48;;;6.00;92.80;;;;;;5094980;28;20035;-61
2021/11/28 07:26:20;;;;;;;11.18;8.93;;;5.90;92.70;;;;;;5094485;28;20498;-61
2021/11/28 07:28:47;;;;;;;12.25;8.95;;;5.90;92.60;;;;;;5097421;28;20063;-62
2021/11/28 07:31:13;;;;;;;10.40;8.18;;;5.80;92.50;;;;;;5093740;28;20040;-61
2021/11/28 07:33:39;;;;;;;12.57;8.93;;;5.60;92.60;;;;;;5094988;28;20038;-62
2021/11/28 07:36:06;;;;;;;11.13;8.10;;;5.60;93.00;;;;;;5094424;28;20047;-62
2021/11/28 07:38:33;;;;;;;11.93;8.43;;;5.60;92.90;;;;;;5094365;28;20051;-62
2021/11/28 07:40:59;;;;;;;9.30;7.45;;;5.60;93.40;;;;;;5099876;28;20036;-62
2021/11/28 07:43:25;;;;;;;10.35;7.70;;;5.60;93.10;;;;;;5097973;28;20036;-62
2021/11/28 07:45:50;;;;;;;11.52;8.88;;;5.70;93.30;;;;;;5082031;28;20040;-62
2021/11/28 07:48:16;;;;;;;10.27;8.35;;;5.70;93.30;;;;;;5088429;28;20035;-62
2021/11/28 07:50:42;;;;;;;9.60;8.25;;;5.90;93.30;;;;;;5082629;28;20039;-62
2021/11/28 07:53:08;;;;;;;14.32;9.68;;;6.20;93.20;;;;;;5097683;28;20132;-62
2021/11/28 07:55:33;;;;;;;13.43;10.80;;;6.40;92.80;;;;;;5097233;28;20047;-61
2021/11/28 07:58:00;;;;;;;12.32;9.63;;;6.30;92.30;;;;;;5098727;28;20136;-62
2021/11/28 08:00:26;;;;;;;10.18;8.27;;;6.20;92.30;;;;;;5098794;28;20048;-62
2021/11/28 08:02:52;;;;;;;12.90;7.75;;;6.10;92.40;;;;;;5100082;28;20522;-61
2021/11/28 08:05:18;;;;;;;13.80;7.50;;;5.80;92.50;;;;;;5094724;28;20052;-62
2021/11/28 08:07:44;;;;;;;8.45;6.43;;;5.60;92.80;;;;;;5101805;28;20395;-62
2021/11/28 08:10:10;;;;;;;9.60;6.45;;;5.50;93.10;;;;;;5099123;28;20039;-63
2021/11/28 08:12:36;;;;;;;10.38;6.15;;;5.60;93.90;;;;;;5063619;28;20083;-63
2021/11/28 08:15:05;;;;;;;8.85;6.40;;;5.70;93.60;;;;;;5089139;28;20429;-62
2021/11/28 08:17:34;;;;;;;10.27;6.45;;;5.80;93.70;;;;;;5096682;28;20035;-64
2021/11/28 08:20:00;;;;;;;9.18;7.07;;;5.90;94.00;;;;;;5097002;28;20120;-62
2021/11/28 08:22:25;;;;;;;8.00;6.32;;;6.00;94.10;;;;;;5098597;28;20043;-62
2021/11/28 08:24:51;;;;;;;9.80;6.05;;;6.10;93.70;;;;;;5099235;28;20112;-63
2021/11/28 08:27:18;;;;;;;8.27;5.35;;;6.10;93.60;;;;;;5096917;27;20097;-63
2021/11/28 08:29:44;;;;;;;7.65;5.68;;;6.20;93.60;;;;;;5096123;28;20047;-63
2021/11/28 08:32:10;;;;;;;7.25;5.40;;;6.30;93.60;;;;;;5100123;28;20765;-64
2021/11/28 08:34:37;;;;;;;8.60;5.53;;;6.30;93.70;;;;;;5097658;28;20051;-64
2021/11/28 08:37:04;;;;;;;8.70;5.93;;;6.40;93.70;;;;;;5086614;28;20046;-64
2021/11/28 08:39:31;;;;;;;7.70;4.57;;;6.50;93.80;;;;;;5103590;28;20151;-64
2021/11/28 08:41:56;;;;;;;5.57;3.95;;;6.60;93.80;;;;;;5099890;28;20105;-65
2021/11/28 08:44:22;;;;;;;6.20;3.65;;;6.60;94.00;;;;;;5096693;28;20032;-63
2021/11/28 08:46:48;;;;;;;6.28;4.38;;;6.80;94.00;;;;;;5098745;28;20154;-63
2021/11/28 08:49:14;;;;;;;8.95;3.70;;;6.80;94.30;;;;;;5091511;28;20044;-61
2021/11/28 08:51:40;;;;;;;5.75;3.45;;;7.00;94.40;;;;;;5099066;28;20675;-65
2021/11/28 08:54:06;;;;;;;5.35;3.35;;;7.10;94.50;;;;;;5097499;28;20044;-61
2021/11/28 08:56:32;;;;;;;5.70;3.15;;;7.20;94.60;;;;;;5097193;28;20073;-62
2021/11/28 08:58:58;;;;;;;3.97;2.80;;;7.30;94.60;;;;;;5097833;28;20039;-61
2021/11/28 09:01:24;;;;;;;4.65;2.40;;;7.40;94.60;;;;;;5100216;28;20040;-62
2021/11/28 09:03:49;;;;;;;4.53;2.25;;;7.50;94.10;;;;;;5089297;28;20427;-64
2021/11/28 09:06:15;;;;;;;4.88;2.60;;;7.60;94.10;;;;;;5089608;28;20067;-64
2021/11/28 09:08:41;;;;;;;4.28;2.33;;;7.80;94.20;;;;;;5100790;28;20560;-65
2021/11/28 09:11:07;;;;;;;3.55;1.85;;;8.10;93.90;;;;;;5098781;28;20404;-62
2021/11/28 09:13:34;;;;;;;3.60;1.85;;;8.40;93.50;;;;;;5097598;28;20047;-62
2021/11/28 09:16:01;;;;;;;2.22;1.40;;;8.50;93.10;;;;;;5089804;28;20170;-62
2021/11/28 09:18:52;;;;;;;3.95;1.33;;;8.60;93.00;;;;;;5098047;28;20039;-64
2021/11/28 09:21:15;;;;;;;3.78;1.30;;;8.60;92.80;;;;;;5096545;28;20869;-64
2021/11/28 09:26:30;;;;;;;4.85;1.98;;;8.50;92.60;;;;;;5095429;28;20070;-65
2021/11/28 09:29:00;;;;;;;4.53;2.08;;;8.50;92.60;;;;;;5094497;28;20048;-64
2021/11/28 09:31:27;;;;;;;2.85;1.50;;;8.40;92.60;;;;;;5091188;28;20526;-64
2021/11/28 09:33:53;;;;;;;5.47;1.50;;;8.40;92.50;;;;;;5075383;28;20044;-66
2021/11/28 09:36:18;;;;;;;6.35;2.33;;;8.30;92.30;;;;;;5075818;28;21491;-67
2021/11/28 09:38:44;;;;;;;1.95;1.20;;;8.30;92.40;;;;;;5093228;28;20101;-67
2021/11/28 09:41:12;;;;;;;2.45;1.30;;;8.30;92.50;;;;;;5090304;28;21088;-66
2021/11/28 09:43:46;;;;;;;3.33;1.52;;;8.30;92.50;;;;;;5093507;28;20078;-66
2021/11/28 09:46:13;;;;;;;2.92;1.48;;;8.30;92.50;;;;;;5091281;28;20164;-66
2021/11/28 09:48:39;;;;;;;2.65;1.40;;;8.30;92.60;;;;;;5077386;28;20703;-67
2021/11/28 09:51:07;;;;;;;2.25;1.38;;;8.30;92.60;;;;;;5092979;28;20456;-67
2021/11/28 09:53:36;;;;;;;2.72;1.27;;;8.30;92.60;;;;;;5094955;28;21628;-66
2021/11/28 09:56:02;;;;;;;4.53;1.65;;;8.30;92.70;;;;;;5092870;28;20040;-68
2021/11/28 09:58:29;;;;;;;4.65;2.30;;;8.30;92.90;;;;;;5092164;28;20036;-68
2021/11/28 10:00:58;;;;;;;2.70;1.48;;;8.40;93.00;;;;;;5091386;28;20608;-68
2021/11/28 10:03:24;;;;;;;4.57;2.13;;;8.50;93.00;;;;;;5076343;28;22240;-68
2021/11/28 10:05:54;;;;;;;1.95;1.40;;;8.50;92.90;;;;;;5092748;28;20036;-68
2021/11/28 10:08:21;;;;;;;2.13;1.45;;;8.50;92.70;;;;;;5092380;28;20066;-68
2021/11/28 10:11:16;;;;;;;2.38;1.60;;;8.50;92.50;;;;;;5076493;28;20043;-67
2021/11/28 10:13:44;;;;;;;3.33;1.63;;;8.50;92.40;;;;;;5091018;28;20104;-67
2021/11/28 10:16:09;;;;;;;10.27;3.15;;;8.50;92.70;;;;;;5093342;28;20685;-58
2021/11/28 10:18:36;;;;;;;15.07;3.25;;;8.50;92.70;;;;;;5094385;28;20105;-60
2021/11/28 10:21:02;;;;;;;9.05;2.50;;;9.00;94.80;;;;;;5091724;28;20071;-59
2021/11/28 10:23:28;;;;;;;11.85;2.47;;;10.00;96.10;;;;;;5092521;28;20154;-59
2021/11/28 10:26:13;;;;;;;10.15;2.97;;;10.80;96.20;;;;;;5091297;28;20096;-58
2021/11/28 10:29:07;;;;;;;4.43;1.88;;;11.70;96.00;;;;;;5091605;28;20047;-59
2021/11/28 10:31:43;;;;;;;4.70;2.25;;;12.30;95.10;;;;;;5090931;28;20051;-59
2021/11/28 10:34:16;;;;;;;6.40;2.53;;;12.80;94.20;;;;;;5093339;28;20051;-59
2021/11/28 10:36:42;;;;;;;4.57;1.92;;;13.20;93.50;;;;;;5093282;28;20101;-59
2021/11/28 10:39:13;;;;;;;6.50;2.67;;;13.50;92.90;;;;;;5092267;28;20039;-59
2021/11/28 10:41:54;;;;;;;7.30;2.22;;;13.70;92.20;;;;;;5093058;28;20031;-59
2021/11/28 10:44:23;;;;;;;3.92;2.08;;;13.90;91.70;;;;;;5094602;28;20039;-59
2021/11/28 10:46:49;;;;;;;4.60;2.15;;;14.10;91.10;;;;;;5095009;28;20650;-59
2021/11/28 10:49:21;;;;;;;4.45;2.00;;;14.30;90.70;;;;;;5093226;28;20089;-58
2021/11/28 10:51:55;;;;;;;3.13;1.55;;;14.40;90.30;;;;;;5096538;28;20402;-58
2021/11/28 10:54:31;;;;;;;4.00;2.08;;;14.40;89.90;;;;;;5095585;28;20033;-59
2021/11/28 10:57:06;;;;;;;4.22;1.90;;;14.50;88.90;;;;;;5094927;28;20048;-59
2021/11/28 10:59:33;;;;;;;3.38;1.60;;;14.50;88.50;;;;;;5089250;28;20039;-58
2021/11/28 11:01:59;;;;;;;2.60;1.35;;;14.50;88.10;;;;;;5097712;28;20032;-61
2021/11/28 11:04:29;;;;;;;2.95;1.40;;;14.60;87.40;;;;;;5076619;28;20122;-64
2021/11/28 11:07:12;;;;;;;3.42;1.77;;;14.60;87.50;;;;;;5094490;28;20499;-63
2021/11/28 11:09:43;;;;;;;3.65;2.00;;;14.60;86.80;;;;;;5093981;28;20067;-63
2021/11/28 11:12:24;;;;;;;5.05;1.70;;;14.60;86.10;;;;;;5094061;28;20130;-62
2021/11/28 11:14:52;;;;;;;2.83;1.48;;;14.60;86.30;;;;;;5099029;28;20071;-64
2021/11/28 11:17:19;;;;;;;2.53;1.25;;;14.50;86.30;;;;;;5099791;28;20040;-59
2021/11/28 11:19:50;;;;;;;4.10;1.58;;;14.50;86.10;;;;;;5098333;28;20056;-59
2021/11/28 11:22:24;;;;;;;2.58;1.35;;;14.40;85.90;;;;;;5099970;28;20171;-59
2021/11/28 11:24:58;;;;;;;3.30;1.70;;;14.50;86.30;;;;;;5099516;28;20028;-59
2021/11/28 11:27:36;;;;;;;3.03;1.48;;;14.50;85.40;;;;;;5099813;28;20035;-58
2021/11/28 11:30:08;;;;;;;2.15;1.10;;;14.40;85.40;;;;;;5098064;28;20074;-59
2021/11/28 11:32:45;;;;;;;2.83;1.20;;;14.50;84.30;;;;;;5101436;28;20094;-59
2021/11/28 11:35:27;;;;;;;2.58;1.50;;;14.40;84.30;;;;;;5097798;28;20119;-59
2021/11/28 11:37:58;;;;;;;3.67;1.30;;;14.20;84.30;;;;;;5099338;28;20061;-61
2021/11/28 11:40:25;;;;;;;4.15;1.00;;;14.00;84.00;;;;;;5099160;28;20046;-60
2021/11/28 11:42:52;;;;;;;1.95;1.05;;;13.60;82.00;;;;;;5098834;28;20070;-59
2021/11/28 11:45:21;;;;;;;4.97;1.88;;;13.20;83.50;;;;;;5098274;28;20392;-59
2021/11/28 11:47:48;;;;;;;2.35;0.88;;;13.00;85.20;;;;;;5100777;27;20040;-59
2021/11/28 11:50:19;;;;;;;3.53;1.80;;;12.70;85.00;;;;;;5099181;27;20400;-61
2021/11/28 11:52:45;;;;;;;2.80;1.10;;;12.50;85.00;;;;;;5098505;28;20047;-59
2021/11/28 11:55:18;;;;;;;1.88;0.80;;;12.50;86.00;;;;;;5096290;28;20039;-58
2021/11/28 11:57:58;;;;;;;6.13;1.50;;;12.40;84.80;;;;;;5102962;27;20745;-58
2021/11/28 12:00:40;;;;;;;4.45;1.10;;;12.40;86.70;;;;;;5082226;28;20132;-59
2021/11/28 12:03:20;;;;;;;2.40;0.73;;;12.60;87.10;;;;;;5099968;28;20360;-59
2021/11/28 12:05:50;;;;;;;3.95;0.93;;;12.80;86.60;;;;;;5097563;28;20048;-60
2021/11/28 12:08:16;;;;;;;3.35;1.05;;;12.90;86.70;;;;;;5098763;28;20460;-59
2021/11/28 12:11:08;;;;;;;3.15;1.08;;;13.00;85.70;;;;;;5099147;28;20047;-59
2021/11/28 12:13:40;;;;;;;4.35;1.10;;;13.20;85.60;;;;;;5101740;28;20108;-59
2021/11/28 12:16:05;;;;;;;3.63;0.75;;;13.20;83.80;;;;;;5099133;28;20043;-58
2021/11/28 12:18:34;;;;;;;3.75;0.93;;;13.00;82.50;;;;;;5098441;28;20944;-59
2021/11/28 12:21:19;;;;;;;2.65;0.98;;;12.90;83.60;;;;;;5098767;28;20044;-61
2021/11/28 12:24:11;;;;;;;3.67;0.50;;;12.50;79.60;;;;;;5099833;28;20513;-61
2021/11/28 12:26:53;;;;;;;1.80;0.38;;;11.90;77.70;;;;;;5099708;28;20071;-58
2021/11/28 12:29:18;;;;;;;3.53;0.30;;;11.20;78.90;;;;;;5099295;28;20062;-61
2021/11/28 12:31:49;;;;;;;1.85;0.55;;;10.50;80.60;;;;;;5099413;28;20480;-59
2021/11/28 12:34:46;;;;;;;1.90;0.55;;;9.90;82.50;;;;;;5096500;28;20362;-59
2021/11/28 12:37:25;;;;;;;1.98;0.70;;;9.70;87.30;;;;;;5098471;28;20092;-59
2021/11/28 12:39:53;;;;;;;2.35;0.70;;;10.00;90.00;;;;;;5095654;28;20043;-59
2021/11/28 12:42:20;;;;;;;3.47;0.60;;;10.30;90.40;;;;;;5098297;28;20038;-59
2021/11/28 12:44:48;;;;;;;6.68;1.25;;;10.80;90.70;;;;;;5098182;28;20460;-59
2021/11/28 12:47:14;;;;;;;2.33;0.70;;;11.20;90.60;;;;;;5098630;28;20104;-59
2021/11/28 12:49:51;;;;;;;2.97;0.82;;;11.60;90.10;;;;;;5098248;28;20043;-59
2021/11/28 12:52:23;;;;;;;4.88;0.73;;;11.90;89.30;;;;;;5098221;28;20043;-59
2021/11/28 12:55:04;;;;;;;1.73;0.20;;;11.90;85.20;;;;;;5098286;28;20032;-59
2021/11/28 12:58:01;;;;;;;2.83;0.68;;;11.50;82.10;;;;;;5097167;28;20224;-59